createdAt,value
2019-02-05T00:09:43.094Z,95.00
2019-02-05T00:19:45.564Z,94.60
2019-02-05T00:29:47.091Z,94.50
2019-02-05T00:39:48.516Z,95.20
2019-02-05T00:49:49.920Z,95.30
2019-02-05T00:59:51.560Z,95.50
2019-02-05T01:09:52.968Z,95.50
2019-02-05T01:19:55.416Z,95.80
2019-02-05T01:29:56.852Z,95.80
2019-02-05T01:39:58.460Z,95.70
2019-02-05T01:49:59.876Z,95.50
2019-02-05T02:00:01.773Z,95.00
2019-02-05T02:10:07.232Z,94.60
2019-02-05T02:20:17.969Z,94.50
2019-02-05T02:30:32.033Z,94.60
2019-02-05T02:40:33.544Z,94.80
2019-02-05T02:50:35.108Z,95.60
2019-02-05T03:00:36.604Z,95.20
2019-02-05T03:10:38.173Z,95.50
2019-02-05T03:20:41.370Z,95.30
2019-02-05T03:30:42.886Z,94.20
2019-02-05T03:40:56.567Z,94.50
2019-02-05T03:51:07.748Z,94.50
2019-02-05T04:01:18.920Z,94.60
2019-02-05T04:11:33.204Z,95.30
2019-02-05T04:21:48.682Z,95.70
2019-02-05T04:31:54.002Z,95.30
2019-02-05T04:42:11.381Z,96.40
2019-02-05T04:52:26.999Z,96.60
2019-02-05T05:02:35.180Z,96.70
2019-02-05T05:12:36.594Z,96.60
2019-02-05T05:22:39.262Z,95.90
2019-02-05T05:32:40.995Z,95.70
2019-02-05T05:42:42.401Z,95.40
2019-02-05T05:52:43.816Z,95.30
2019-02-05T06:02:45.545Z,95.90
2019-02-05T06:12:47.055Z,95.40
2019-02-05T06:22:49.601Z,95.80
2019-02-05T06:32:51.197Z,96.60
2019-02-05T06:42:52.696Z,95.90
2019-02-05T06:52:54.153Z,95.60
2019-02-05T07:02:55.623Z,95.90
2019-02-05T07:12:57.113Z,92.40
2019-02-05T07:22:59.545Z,87.10
2019-02-05T07:33:01.089Z,75.40
2019-02-05T07:43:02.601Z,64.40
2019-02-05T07:53:04.174Z,53.40
2019-02-05T08:03:05.886Z,48.90
2019-02-05T08:13:07.544Z,44.10
2019-02-05T08:23:09.932Z,40.40
2019-02-05T08:33:11.544Z,38.60
2019-02-05T08:43:12.964Z,47.90
2019-02-05T08:53:14.422Z,43.30
2019-02-05T09:03:15.857Z,38.90
2019-02-05T09:13:17.312Z,33.90
2019-02-05T09:23:20.603Z,29.70
2019-02-05T09:33:22.236Z,30.40
2019-02-05T09:43:23.660Z,36.00
2019-02-05T09:53:25.040Z,38.00
2019-02-05T10:03:26.558Z,35.90
2019-02-05T10:13:28.017Z,34.40
2019-02-05T10:23:32.040Z,37.30
2019-02-05T10:33:33.576Z,38.40
2019-02-05T10:43:35.198Z,34.80
2019-02-05T10:53:36.873Z,35.40
2019-02-05T11:03:38.319Z,42.40
2019-02-05T11:13:39.712Z,45.70
2019-02-05T11:23:42.153Z,51.30
2019-02-05T11:33:43.670Z,54.40
2019-02-05T11:43:45.076Z,58.80
2019-02-05T11:53:46.497Z,58.20
2019-02-05T12:03:47.924Z,58.30
2019-02-05T12:13:49.397Z,61.60
2019-02-05T12:23:51.840Z,62.70
2019-02-05T12:33:53.346Z,63.90
2019-02-05T12:43:54.761Z,67.90
2019-02-05T12:53:56.249Z,69.20
2019-02-05T13:03:57.745Z,71.50
2019-02-05T13:13:59.408Z,73.60
2019-02-05T13:24:01.838Z,76.40
2019-02-05T13:34:04.156Z,73.90
2019-02-05T13:44:05.678Z,76.30
2019-02-05T13:54:07.160Z,76.00
2019-02-05T14:04:08.588Z,77.70
2019-02-05T14:14:11.256Z,80.90
2019-02-05T14:24:12.792Z,82.50
2019-02-05T14:34:14.328Z,83.20
2019-02-05T14:44:15.831Z,85.60
2019-02-05T14:54:17.132Z,85.20
2019-02-05T15:04:18.561Z,86.20
2019-02-05T15:14:19.976Z,87.30
2019-02-05T15:24:22.493Z,87.10
2019-02-05T15:34:24.134Z,87.00
2019-02-05T15:44:25.540Z,86.40
2019-02-05T15:54:26.962Z,88.50
2019-02-05T16:04:28.399Z,89.90
2019-02-05T16:14:29.828Z,90.40
2019-02-05T16:24:32.389Z,89.90
2019-02-05T16:34:33.924Z,90.20
2019-02-05T16:44:35.544Z,90.90
2019-02-05T16:54:37.000Z,90.90
2019-02-05T17:04:38.532Z,90.90
2019-02-05T17:14:39.916Z,90.00
2019-02-05T17:24:42.372Z,91.60
2019-02-05T17:34:43.880Z,90.50
2019-02-05T17:44:45.308Z,90.50
2019-02-05T17:54:47.193Z,90.90
2019-02-05T18:04:48.653Z,91.70
2019-02-05T18:14:50.086Z,91.90
2019-02-05T18:24:52.437Z,91.60
2019-02-05T18:34:53.972Z,92.50
2019-02-05T18:44:55.394Z,92.30
2019-02-05T18:54:56.763Z,92.20
2019-02-05T19:04:58.209Z,92.00
2019-02-05T19:14:59.596Z,92.30
2019-02-05T19:25:05.812Z,91.90
2019-02-05T19:35:07.456Z,91.60
2019-02-05T19:45:29.274Z,91.60
2019-02-05T19:55:31.114Z,91.30
2019-02-05T20:05:32.554Z,91.20
2019-02-05T20:15:33.974Z,91.20
2019-02-05T20:25:37.207Z,91.10
2019-02-05T20:35:38.841Z,90.80
2019-02-05T20:45:40.281Z,90.80
2019-02-05T20:55:41.757Z,90.50
2019-02-05T21:05:43.283Z,90.10
2019-02-05T21:15:44.840Z,90.40
2019-02-05T21:25:47.196Z,90.30
2019-02-05T21:35:48.753Z,90.20
2019-02-05T21:45:50.180Z,90.10
2019-02-05T21:55:52.149Z,89.40
2019-02-05T22:05:53.593Z,88.60
2019-02-05T22:15:55.018Z,88.40
2019-02-05T22:25:57.369Z,88.50
2019-02-05T22:35:58.901Z,89.70
2019-02-05T22:46:00.408Z,90.10
2019-02-05T22:56:02.324Z,89.90
2019-02-05T23:06:13.824Z,89.50
2019-02-05T23:16:15.233Z,89.30
2019-02-05T23:26:17.627Z,88.40
2019-02-05T23:36:19.108Z,88.60
2019-02-05T23:46:20.515Z,87.80
2019-02-05T23:56:26.178Z,87.80
